Startpagina
METAR-TAF:

METAR-TAF

Vliegvelden :

Macas, Ecuador

breedte: 02-17-57-S, lengte: 078-07-15-W, hoogte: 1052 m

Actueel weer

Dit bericht is 31 minuten geleden gemaakt, om 12:00 UTC
Wind 2 kt uit het zuidwesten
Temperatuur 19°C
Vochtigheid 100%
Druk 1018 hPa
Zicht: 1000 m
Geheel bewolkt op 400 ft
nevel

METAR: SEMC 101200Z 23002KT 1000 BR OVC004 19/19 Q1018 RMK A3008

Tijdstip: 07:31 (12:31 UTC)


TAF: ontbreekt

Waarnemingen en weersverwachtingen van meer dan 4000 vliegvelden (METAR en TAF).

De beschikbare stations zijn de gele en rode punten op de kaart.

Ga met uw muis naar het station om de naam te zien.

Klik dan om waarnemingen en weersverwachtingen te zien.

kaart wijzigen: klik op de groene knoppen met een zwart kruis om in te zoomen, op de groene knop met een streepje om uit te zoomen of op de groene pijlen voor aangrenzende kaarten.


METAR-TAF: